sensor_id;sensor_type;location;lat;lon;timestamp;pressure;altitude;pressure_sealevel;temperature;humidity
59190;BME280;50749;51.636;4.948;2023-08-24T00:01:36;101885.59;;;22.82;56.93
59190;BME280;50749;51.636;4.948;2023-08-24T00:04:02;101896.31;;;22.80;56.88
59190;BME280;50749;51.636;4.948;2023-08-24T00:06:28;101894.34;;;22.81;56.79
59190;BME280;50749;51.636;4.948;2023-08-24T00:08:54;101886.34;;;22.79;56.93
59190;BME280;50749;51.636;4.948;2023-08-24T00:11:20;101880.75;;;22.79;56.61
59190;BME280;50749;51.636;4.948;2023-08-24T00:13:46;101873.28;;;22.84;56.29
59190;BME280;50749;51.636;4.948;2023-08-24T00:16:16;101866.94;;;22.83;55.87
59190;BME280;50749;51.636;4.948;2023-08-24T00:18:41;101873.66;;;22.82;56.18
59190;BME280;50749;51.636;4.948;2023-08-24T00:21:08;101871.66;;;22.82;56.21
59190;BME280;50749;51.636;4.948;2023-08-24T00:23:34;101865.38;;;22.86;56.34
59190;BME280;50749;51.636;4.948;2023-08-24T00:25:59;101861.78;;;22.85;56.22
59190;BME280;50749;51.636;4.948;2023-08-24T00:28:25;101857.38;;;22.84;55.94
59190;BME280;50749;51.636;4.948;2023-08-24T00:30:54;101861.78;;;22.85;56.43
59190;BME280;50749;51.636;4.948;2023-08-24T00:33:20;101858.16;;;22.85;56.00
59190;BME280;50749;51.636;4.948;2023-08-24T00:35:46;101853.78;;;22.84;55.99
59190;BME280;50749;51.636;4.948;2023-08-24T00:38:11;101855.31;;;22.81;56.76
59190;BME280;50749;51.636;4.948;2023-08-24T00:40:37;101857.66;;;22.79;56.41
59190;BME280;50749;51.636;4.948;2023-08-24T00:43:04;101861.66;;;22.78;56.63
59190;BME280;50749;51.636;4.948;2023-08-24T00:45:30;101860.03;;;22.77;56.81
59190;BME280;50749;51.636;4.948;2023-08-24T00:47:58;101858.84;;;22.78;56.95
59190;BME280;50749;51.636;4.948;2023-08-24T00:50:24;101854.09;;;22.78;56.66
59190;BME280;50749;51.636;4.948;2023-08-24T00:52:50;101845.34;;;22.80;56.30
59190;BME280;50749;51.636;4.948;2023-08-24T00:55:16;101841.38;;;22.81;56.16
59190;BME280;50749;51.636;4.948;2023-08-24T00:57:42;101841.84;;;22.83;56.16
59190;BME280;50749;51.636;4.948;2023-08-24T01:00:09;101846.94;;;22.81;56.56
59190;BME280;50749;51.636;4.948;2023-08-24T01:02:38;101847.72;;;22.78;56.59
59190;BME280;50749;51.636;4.948;2023-08-24T01:05:04;101851.66;;;22.77;56.49
59190;BME280;50749;51.636;4.948;2023-08-24T01:07:31;101833.78;;;22.78;56.42
59190;BME280;50749;51.636;4.948;2023-08-24T01:09:58;101830.97;;;22.78;56.49
59190;BME280;50749;51.636;4.948;2023-08-24T01:12:50;101831.78;;;22.78;56.38
59190;BME280;50749;51.636;4.948;2023-08-24T01:15:37;101836.47;;;22.74;56.90
59190;BME280;50749;51.636;4.948;2023-08-24T01:18:11;101844.03;;;22.74;56.93
59190;BME280;50749;51.636;4.948;2023-08-24T01:20:42;101845.59;;;22.71;56.78
59190;BME280;50749;51.636;4.948;2023-08-24T01:23:39;101835.66;;;22.74;56.49
59190;BME280;50749;51.636;4.948;2023-08-24T01:26:14;101832.88;;;22.74;56.16
59190;BME280;50749;51.636;4.948;2023-08-24T01:28:40;101832.44;;;22.72;56.64
59190;BME280;50749;51.636;4.948;2023-08-24T01:31:08;101843.59;;;22.72;56.95
59190;BME280;50749;51.636;4.948;2023-08-24T01:33:33;101845.19;;;22.73;56.76
59190;BME280;50749;51.636;4.948;2023-08-24T01:35:59;101848.38;;;22.71;56.83
59190;BME280;50749;51.636;4.948;2023-08-24T01:38:25;101850.41;;;22.74;56.88
59190;BME280;50749;51.636;4.948;2023-08-24T01:43:34;101839.72;;;22.76;56.66
59190;BME280;50749;51.636;4.948;2023-08-24T01:46:05;101835.66;;;22.74;56.75
59190;BME280;50749;51.636;4.948;2023-08-24T01:48:32;101845.94;;;22.70;56.60
59190;BME280;50749;51.636;4.948;2023-08-24T01:51:00;101834.34;;;22.68;56.89
59190;BME280;50749;51.636;4.948;2023-08-24T01:53:28;101838.31;;;22.67;57.11
59190;BME280;50749;51.636;4.948;2023-08-24T01:55:54;101843.06;;;22.66;56.77
59190;BME280;50749;51.636;4.948;2023-08-24T01:58:20;101822.81;;;22.69;56.66
59190;BME280;50749;51.636;4.948;2023-08-24T02:00:46;101824.88;;;22.72;56.45
59190;BME280;50749;51.636;4.948;2023-08-24T02:03:12;101841.16;;;22.70;57.14
59190;BME280;50749;51.636;4.948;2023-08-24T02:05:38;101852.25;;;22.67;57.21
59190;BME280;50749;51.636;4.948;2023-08-24T02:08:03;101853.84;;;22.68;57.30
59190;BME280;50749;51.636;4.948;2023-08-24T02:10:29;101847.47;;;22.67;57.25
59190;BME280;50749;51.636;4.948;2023-08-24T02:12:55;101824.38;;;22.67;57.08
59190;BME280;50749;51.636;4.948;2023-08-24T02:15:21;101819.25;;;22.69;57.30
59190;BME280;50749;51.636;4.948;2023-08-24T02:17:47;101807.72;;;22.70;57.08
59190;BME280;50749;51.636;4.948;2023-08-24T02:20:13;101815.66;;;22.68;56.99
59190;BME280;50749;51.636;4.948;2023-08-24T02:22:39;101815.28;;;22.70;57.01
59190;BME280;50749;51.636;4.948;2023-08-24T02:25:06;101807.66;;;22.67;56.71
59190;BME280;50749;51.636;4.948;2023-08-24T02:27:32;101784.47;;;22.62;57.17
59190;BME280;50749;51.636;4.948;2023-08-24T02:29:58;101757.72;;;22.58;57.04
59190;BME280;50749;51.636;4.948;2023-08-24T02:32:24;101739.75;;;22.55;57.47
59190;BME280;50749;51.636;4.948;2023-08-24T02:34:50;101724.19;;;22.54;57.17
59190;BME280;50749;51.636;4.948;2023-08-24T02:37:15;101710.25;;;22.54;57.47
59190;BME280;50749;51.636;4.948;2023-08-24T02:39:41;101710.66;;;22.53;57.36
59190;BME280;50749;51.636;4.948;2023-08-24T02:42:07;101703.84;;;22.50;57.65
59190;BME280;50749;51.636;4.948;2023-08-24T02:44:32;101708.25;;;22.51;57.69
59190;BME280;50749;51.636;4.948;2023-08-24T02:46:58;101691.06;;;22.49;57.80
59190;BME280;50749;51.636;4.948;2023-08-24T02:49:24;101675.53;;;22.48;57.95
59190;BME280;50749;51.636;4.948;2023-08-24T02:51:50;101662.34;;;22.45;57.86
59190;BME280;50749;51.636;4.948;2023-08-24T02:54:16;101654.72;;;22.42;57.98
59190;BME280;50749;51.636;4.948;2023-08-24T02:56:41;101659.94;;;22.43;58.05
59190;BME280;50749;51.636;4.948;2023-08-24T02:59:07;101655.91;;;22.41;58.42
59190;BME280;50749;51.636;4.948;2023-08-24T03:01:33;101661.03;;;22.39;58.20
59190;BME280;50749;51.636;4.948;2023-08-24T03:03:58;101659.81;;;22.36;58.28
59190;BME280;50749;51.636;4.948;2023-08-24T03:06:24;101675.69;;;22.36;58.80
59190;BME280;50749;51.636;4.948;2023-08-24T03:08:50;101685.25;;;22.35;58.86
59190;BME280;50749;51.636;4.948;2023-08-24T03:11:16;101686.41;;;22.34;58.38
59190;BME280;50749;51.636;4.948;2023-08-24T03:13:42;101696.38;;;22.35;58.71
59190;BME280;50749;51.636;4.948;2023-08-24T03:16:08;101696.38;;;22.35;59.00
59190;BME280;50749;51.636;4.948;2023-08-24T03:18:34;101686.41;;;22.34;58.87
59190;BME280;50749;51.636;4.948;2023-08-24T03:21:00;101674.03;;;22.31;58.92
59190;BME280;50749;51.636;4.948;2023-08-24T03:23:26;101676.00;;;22.31;58.71
59190;BME280;50749;51.636;4.948;2023-08-24T03:25:52;101672.78;;;22.29;59.08
59190;BME280;50749;51.636;4.948;2023-08-24T03:28:19;101673.19;;;22.31;58.89
59190;BME280;50749;51.636;4.948;2023-08-24T03:30:49;101670.06;;;22.32;58.89
59190;BME280;50749;51.636;4.948;2023-08-24T03:33:16;101678.03;;;22.34;58.33
59190;BME280;50749;51.636;4.948;2023-08-24T03:35:41;101680.09;;;22.37;58.21
59190;BME280;50749;51.636;4.948;2023-08-24T03:38:08;101675.31;;;22.37;58.48
59190;BME280;50749;51.636;4.948;2023-08-24T03:40:33;101671.38;;;22.38;58.41
59190;BME280;50749;51.636;4.948;2023-08-24T03:43:01;101677.38;;;22.40;58.50
59190;BME280;50749;51.636;4.948;2023-08-24T03:45:26;101679.38;;;22.40;58.31
59190;BME280;50749;51.636;4.948;2023-08-24T03:47:52;101672.16;;;22.39;58.28
59190;BME280;50749;51.636;4.948;2023-08-24T03:50:18;101673.38;;;22.38;58.70
59190;BME280;50749;51.636;4.948;2023-08-24T03:52:44;101663.00;;;22.38;58.48
59190;BME280;50749;51.636;4.948;2023-08-24T03:55:10;101665.75;;;22.35;58.49
59190;BME280;50749;51.636;4.948;2023-08-24T03:57:35;101653.28;;;22.29;58.96
59190;BME280;50749;51.636;4.948;2023-08-24T04:00:05;101646.44;;;22.26;58.95
59190;BME280;50749;51.636;4.948;2023-08-24T04:02:33;101641.63;;;22.23;58.89
59190;BME280;50749;51.636;4.948;2023-08-24T04:04:58;101638.81;;;22.23;59.09
59190;BME280;50749;51.636;4.948;2023-08-24T04:07:24;101641.97;;;22.21;58.89
59190;BME280;50749;51.636;4.948;2023-08-24T04:09:50;101637.56;;;22.20;58.98
59190;BME280;50749;51.636;4.948;2023-08-24T04:12:16;101649.13;;;22.22;59.12
59190;BME280;50749;51.636;4.948;2023-08-24T04:14:41;101644.47;;;22.26;59.04
59190;BME280;50749;51.636;4.948;2023-08-24T04:17:07;101640.97;;;22.30;59.07
59190;BME280;50749;51.636;4.948;2023-08-24T04:19:33;101639.34;;;22.29;59.04
59190;BME280;50749;51.636;4.948;2023-08-24T04:21:59;101631.69;;;22.25;58.80
59190;BME280;50749;51.636;4.948;2023-08-24T04:24:24;101637.22;;;22.22;58.79
59190;BME280;50749;51.636;4.948;2023-08-24T04:26:51;101634.94;;;22.27;59.34
59190;BME280;50749;51.636;4.948;2023-08-24T04:29:17;101642.84;;;22.25;59.44
59190;BME280;50749;51.636;4.948;2023-08-24T04:31:43;101643.28;;;22.27;59.06
59190;BME280;50749;51.636;4.948;2023-08-24T04:34:08;101653.97;;;22.25;59.23
59190;BME280;50749;51.636;4.948;2023-08-24T04:36:35;101649.69;;;22.28;59.48
59190;BME280;50749;51.636;4.948;2023-08-24T04:39:00;101659.28;;;22.31;59.67
59190;BME280;50749;51.636;4.948;2023-08-24T04:41:27;101664.94;;;22.34;59.49
59190;BME280;50749;51.636;4.948;2023-08-24T04:43:52;101664.63;;;22.39;59.13
59190;BME280;50749;51.636;4.948;2023-08-24T04:46:18;101660.59;;;22.37;59.20
59190;BME280;50749;51.636;4.948;2023-08-24T04:48:44;101658.75;;;22.25;59.84
59190;BME280;50749;51.636;4.948;2023-08-24T04:51:10;101668.94;;;22.17;59.92
59190;BME280;50749;51.636;4.948;2023-08-24T04:53:36;101668.81;;;22.10;60.40
59190;BME280;50749;51.636;4.948;2023-08-24T04:56:02;101667.03;;;22.02;60.22
59190;BME280;50749;51.636;4.948;2023-08-24T04:58:27;101663.69;;;21.93;60.48
59190;BME280;50749;51.636;4.948;2023-08-24T05:00:53;101656.34;;;21.84;60.58
59190;BME280;50749;51.636;4.948;2023-08-24T05:03:20;101647.41;;;21.75;60.80
59190;BME280;50749;51.636;4.948;2023-08-24T05:05:47;101644.91;;;21.70;61.56
59190;BME280;50749;51.636;4.948;2023-08-24T05:08:13;101650.75;;;21.65;61.54
59190;BME280;50749;51.636;4.948;2023-08-24T05:10:39;101650.31;;;21.63;61.55
59190;BME280;50749;51.636;4.948;2023-08-24T05:13:05;101642.28;;;21.58;61.60
59190;BME280;50749;51.636;4.948;2023-08-24T05:15:31;101641.84;;;21.56;61.89
59190;BME280;50749;51.636;4.948;2023-08-24T05:17:56;101638.22;;;21.55;62.08
59190;BME280;50749;51.636;4.948;2023-08-24T05:20:25;101630.69;;;21.56;62.44
59190;BME280;50749;51.636;4.948;2023-08-24T05:22:51;101621.47;;;21.51;62.39
59190;BME280;50749;51.636;4.948;2023-08-24T05:25:17;101622.19;;;21.48;62.32
59190;BME280;50749;51.636;4.948;2023-08-24T05:27:43;101614.31;;;21.50;62.76
59190;BME280;50749;51.636;4.948;2023-08-24T05:30:10;101613.03;;;21.48;63.11
59190;BME280;50749;51.636;4.948;2023-08-24T05:32:35;101618.94;;;21.46;62.90
59190;BME280;50749;51.636;4.948;2023-08-24T05:35:05;101617.00;;;21.47;62.43
59190;BME280;50749;51.636;4.948;2023-08-24T05:37:31;101606.22;;;21.45;63.12
59190;BME280;50749;51.636;4.948;2023-08-24T05:39:58;101606.56;;;21.44;62.93
59190;BME280;50749;51.636;4.948;2023-08-24T05:42:24;101607.72;;;21.43;63.22
59190;BME280;50749;51.636;4.948;2023-08-24T05:44:50;101602.16;;;21.43;63.10
59190;BME280;50749;51.636;4.948;2023-08-24T05:47:16;101591.84;;;21.43;63.03
59190;BME280;50749;51.636;4.948;2023-08-24T05:49:42;101585.91;;;21.45;63.26
59190;BME280;50749;51.636;4.948;2023-08-24T05:52:07;101585.47;;;21.43;63.21
59190;BME280;50749;51.636;4.948;2023-08-24T05:54:36;101574.72;;;21.41;63.83
59190;BME280;50749;51.636;4.948;2023-08-24T05:57:02;101580.28;;;21.41;63.56
59190;BME280;50749;51.636;4.948;2023-08-24T05:59:30;101569.53;;;21.40;63.77
59190;BME280;50749;51.636;4.948;2023-08-24T06:01:56;101572.66;;;21.38;64.16
59190;BME280;50749;51.636;4.948;2023-08-24T06:04:21;101565.06;;;21.35;64.44
59190;BME280;50749;51.636;4.948;2023-08-24T06:06:47;101580.56;;;21.36;64.00
59190;BME280;50749;51.636;4.948;2023-08-24T06:09:13;101583.72;;;21.34;64.16
59190;BME280;50749;51.636;4.948;2023-08-24T06:11:40;101581.28;;;21.33;64.74
59190;BME280;50749;51.636;4.948;2023-08-24T06:14:06;101581.75;;;21.35;64.16
59190;BME280;50749;51.636;4.948;2023-08-24T06:16:32;101569.09;;;21.38;64.53
59190;BME280;50749;51.636;4.948;2023-08-24T06:18:58;101564.31;;;21.38;64.88
59190;BME280;50749;51.636;4.948;2023-08-24T06:21:24;101560.75;;;21.38;65.11
59190;BME280;50749;51.636;4.948;2023-08-24T06:23:50;101560.00;;;21.41;65.13
59190;BME280;50749;51.636;4.948;2023-08-24T06:26:17;101574.72;;;21.41;64.63
59190;BME280;50749;51.636;4.948;2023-08-24T06:28:43;101575.97;;;21.44;65.01
59190;BME280;50749;51.636;4.948;2023-08-24T06:31:09;101565.28;;;21.46;64.64
59190;BME280;50749;51.636;4.948;2023-08-24T06:33:35;101566.53;;;21.48;65.08
59190;BME280;50749;51.636;4.948;2023-08-24T06:36:02;101573.31;;;21.47;64.40
59190;BME280;50749;51.636;4.948;2023-08-24T06:38:31;101568.16;;;21.49;64.57
59190;BME280;50749;51.636;4.948;2023-08-24T06:41:00;101573.00;;;21.52;64.45
59190;BME280;50749;51.636;4.948;2023-08-24T06:43:27;101570.22;;;21.52;64.82
59190;BME280;50749;51.636;4.948;2023-08-24T06:45:54;101553.97;;;21.55;65.03
59190;BME280;50749;51.636;4.948;2023-08-24T06:48:21;101557.19;;;21.57;64.58
59190;BME280;50749;51.636;4.948;2023-08-24T06:50:46;101558.81;;;21.58;64.93
59190;BME280;50749;51.636;4.948;2023-08-24T06:53:12;101558.06;;;21.61;64.37
59190;BME280;50749;51.636;4.948;2023-08-24T06:55:40;101542.19;;;21.61;64.59
59190;BME280;50749;51.636;4.948;2023-08-24T06:58:06;101539.03;;;21.63;64.36
59190;BME280;50749;51.636;4.948;2023-08-24T07:00:32;101538.31;;;21.66;64.32
59190;BME280;50749;51.636;4.948;2023-08-24T07:02:59;101529.22;;;21.69;64.40
59190;BME280;50749;51.636;4.948;2023-08-24T07:05:25;101518.53;;;21.71;64.45
59190;BME280;50749;51.636;4.948;2023-08-24T07:07:52;101529.28;;;21.73;64.22
59190;BME280;50749;51.636;4.948;2023-08-24T07:10:17;101535.66;;;21.73;64.25
59190;BME280;50749;51.636;4.948;2023-08-24T07:12:43;101540.84;;;21.75;64.54
59190;BME280;50749;51.636;4.948;2023-08-24T07:15:11;101537.34;;;21.78;64.51
59190;BME280;50749;51.636;4.948;2023-08-24T07:17:37;101536.97;;;21.79;64.42
59190;BME280;50749;51.636;4.948;2023-08-24T07:20:04;101535.06;;;21.83;64.28
59190;BME280;50749;51.636;4.948;2023-08-24T07:22:37;101535.47;;;21.85;64.25
59190;BME280;50749;51.636;4.948;2023-08-24T07:25:04;101539.53;;;21.88;64.21
59190;BME280;50749;51.636;4.948;2023-08-24T07:27:34;101535.22;;;21.91;64.81
59190;BME280;50749;51.636;4.948;2023-08-24T07:30:01;101541.22;;;21.93;65.08
59190;BME280;50749;51.636;4.948;2023-08-24T07:32:29;101523.78;;;21.96;64.49
59190;BME280;50749;51.636;4.948;2023-08-24T07:34:55;101528.56;;;21.99;64.54
59190;BME280;50749;51.636;4.948;2023-08-24T07:37:22;101533.41;;;22.02;64.39
59190;BME280;50749;51.636;4.948;2023-08-24T07:39:48;101546.16;;;22.03;64.65
59190;BME280;50749;51.636;4.948;2023-08-24T07:42:14;101536.63;;;22.04;65.01
59190;BME280;50749;51.636;4.948;2023-08-24T07:44:40;101539.03;;;22.05;64.86
59190;BME280;50749;51.636;4.948;2023-08-24T07:47:06;101547.03;;;22.07;64.27
59190;BME280;50749;51.636;4.948;2023-08-24T07:49:31;101553.84;;;22.10;64.47
59190;BME280;50749;51.636;4.948;2023-08-24T07:51:57;101551.06;;;22.10;64.17
59190;BME280;50749;51.636;4.948;2023-08-24T07:54:24;101544.69;;;22.09;64.11
59190;BME280;50749;51.636;4.948;2023-08-24T07:56:50;101546.28;;;22.10;64.30
59190;BME280;50749;51.636;4.948;2023-08-24T07:59:16;101530.00;;;22.12;64.14
59190;BME280;50749;51.636;4.948;2023-08-24T08:01:42;101529.63;;;22.14;63.91
59190;BME280;50749;51.636;4.948;2023-08-24T08:04:07;101532.06;;;22.15;64.28
59190;BME280;50749;51.636;4.948;2023-08-24T08:06:33;101532.06;;;22.15;64.21
59190;BME280;50749;51.636;4.948;2023-08-24T08:08:59;101518.13;;;22.15;64.46
59190;BME280;50749;51.636;4.948;2023-08-24T08:11:26;101519.75;;;22.16;64.25
59190;BME280;50749;51.636;4.948;2023-08-24T08:13:51;101515.78;;;22.17;64.55
59190;BME280;50749;51.636;4.948;2023-08-24T08:16:17;101500.31;;;22.20;64.31
59190;BME280;50749;51.636;4.948;2023-08-24T08:18:43;101500.75;;;22.22;64.85
59190;BME280;50749;51.636;4.948;2023-08-24T08:21:14;101505.56;;;22.25;64.68
59190;BME280;50749;51.636;4.948;2023-08-24T08:23:40;101492.44;;;22.25;64.60
59190;BME280;50749;51.636;4.948;2023-08-24T08:26:07;101494.06;;;22.26;64.82
59190;BME280;50749;51.636;4.948;2023-08-24T08:28:35;101497.31;;;22.29;64.54
59190;BME280;50749;51.636;4.948;2023-08-24T08:31:01;101489.38;;;22.31;64.72
59190;BME280;50749;51.636;4.948;2023-08-24T08:33:27;101479.84;;;22.32;64.89
59190;BME280;50749;51.636;4.948;2023-08-24T08:35:53;101481.47;;;22.33;64.97
59190;BME280;50749;51.636;4.948;2023-08-24T08:38:19;101484.69;;;22.35;64.61
59190;BME280;50749;51.636;4.948;2023-08-24T08:40:49;101480.34;;;22.37;64.70
59190;BME280;50749;51.636;4.948;2023-08-24T08:43:15;101475.59;;;22.38;64.46
59190;BME280;50749;51.636;4.948;2023-08-24T08:45:41;101472.81;;;22.38;64.64
59190;BME280;50749;51.636;4.948;2023-08-24T08:48:08;101468.81;;;22.39;65.19
59190;BME280;50749;51.636;4.948;2023-08-24T08:50:34;101448.16;;;22.40;65.07
59190;BME280;50749;51.636;4.948;2023-08-24T08:53:01;101445.78;;;22.42;64.87
59190;BME280;50749;51.636;4.948;2023-08-24T08:55:27;101446.22;;;22.44;64.93
59190;BME280;50749;51.636;4.948;2023-08-24T08:57:56;101453.41;;;22.45;65.20
59190;BME280;50749;51.636;4.948;2023-08-24T09:00:24;101434.28;;;22.43;65.49
59190;BME280;50749;51.636;4.948;2023-08-24T09:02:53;101431.59;;;22.51;65.09
59190;BME280;50749;51.636;4.948;2023-08-24T09:05:20;101428.81;;;22.51;65.47
59190;BME280;50749;51.636;4.948;2023-08-24T09:07:47;101421.28;;;22.51;65.47
59190;BME280;50749;51.636;4.948;2023-08-24T09:10:13;101412.91;;;22.51;65.41
59190;BME280;50749;51.636;4.948;2023-08-24T09:12:39;101402.19;;;22.53;65.38
59190;BME280;50749;51.636;4.948;2023-08-24T09:15:06;101395.81;;;22.53;65.11
59190;BME280;50749;51.636;4.948;2023-08-24T09:17:32;101383.91;;;22.56;65.19
59190;BME280;50749;51.636;4.948;2023-08-24T09:20:00;101381.56;;;22.58;65.11
59190;BME280;50749;51.636;4.948;2023-08-24T09:22:26;101372.38;;;22.57;65.05
59190;BME280;50749;51.636;4.948;2023-08-24T09:24:52;101374.78;;;22.59;64.46
59190;BME280;50749;51.636;4.948;2023-08-24T09:27:21;101374.78;;;22.59;64.58
59190;BME280;50749;51.636;4.948;2023-08-24T09:29:51;101368.84;;;22.60;64.46
59190;BME280;50749;51.636;4.948;2023-08-24T09:32:37;101380.00;;;22.60;64.88
59190;BME280;50749;51.636;4.948;2023-08-24T09:35:08;101391.13;;;22.60;64.06
59190;BME280;50749;51.636;4.948;2023-08-24T09:37:34;101411.06;;;22.62;65.14
59190;BME280;50749;51.636;4.948;2023-08-24T09:40:02;101421.41;;;22.62;64.91
59190;BME280;50749;51.636;4.948;2023-08-24T09:42:40;101439.75;;;22.63;65.19
59190;BME280;50749;51.636;4.948;2023-08-24T09:45:13;101454.47;;;22.63;64.46
59190;BME280;50749;51.636;4.948;2023-08-24T09:47:39;101456.09;;;22.65;64.55
59190;BME280;50749;51.636;4.948;2023-08-24T09:50:10;101460.47;;;22.66;65.16
59190;BME280;50749;51.636;4.948;2023-08-24T09:52:37;101474.41;;;22.66;65.36
59190;BME280;50749;51.636;4.948;2023-08-24T09:55:08;101476.41;;;22.65;65.74
59190;BME280;50749;51.636;4.948;2023-08-24T09:57:38;101477.97;;;22.66;65.59
59190;BME280;50749;51.636;4.948;2023-08-24T10:00:09;101478.81;;;22.67;65.38
59190;BME280;50749;51.636;4.948;2023-08-24T10:02:49;101487.97;;;22.67;65.54
59190;BME280;50749;51.636;4.948;2023-08-24T10:05:26;101489.13;;;22.66;65.54
59190;BME280;50749;51.636;4.948;2023-08-24T10:07:55;101495.16;;;22.68;65.54
59190;BME280;50749;51.636;4.948;2023-08-24T10:10:24;101503.16;;;22.70;65.97
59190;BME280;50749;51.636;4.948;2023-08-24T10:13:00;101506.72;;;22.70;65.51
59190;BME280;50749;51.636;4.948;2023-08-24T10:15:30;101504.72;;;22.71;65.10
59190;BME280;50749;51.636;4.948;2023-08-24T10:17:58;101504.72;;;22.71;64.82
59190;BME280;50749;51.636;4.948;2023-08-24T10:20:26;101493.59;;;22.71;64.81
59190;BME280;50749;51.636;4.948;2023-08-24T10:22:52;101485.22;;;22.71;64.88
59190;BME280;50749;51.636;4.948;2023-08-24T10:25:19;101485.22;;;22.71;64.81
59190;BME280;50749;51.636;4.948;2023-08-24T10:27:46;101470.91;;;22.72;64.45
59190;BME280;50749;51.636;4.948;2023-08-24T10:30:14;101471.72;;;22.73;64.55
59190;BME280;50749;51.636;4.948;2023-08-24T10:32:41;101473.31;;;22.74;64.72
59190;BME280;50749;51.636;4.948;2023-08-24T10:35:09;101468.53;;;22.74;64.53
59190;BME280;50749;51.636;4.948;2023-08-24T10:37:34;101465.38;;;22.76;64.56
59190;BME280;50749;51.636;4.948;2023-08-24T10:40:00;101464.22;;;22.77;64.70
59190;BME280;50749;51.636;4.948;2023-08-24T10:42:26;101454.69;;;22.78;65.45
59190;BME280;50749;51.636;4.948;2023-08-24T10:44:52;101440.75;;;22.78;65.07
59190;BME280;50749;51.636;4.948;2023-08-24T10:47:20;101446.75;;;22.80;65.15
59190;BME280;50749;51.636;4.948;2023-08-24T10:52:26;101452.75;;;22.82;65.28
59190;BME280;50749;51.636;4.948;2023-08-24T10:54:55;101438.81;;;22.82;65.31
59190;BME280;50749;51.636;4.948;2023-08-24T10:57:25;101451.94;;;22.81;64.76
59190;BME280;50749;51.636;4.948;2023-08-24T11:00:06;101447.97;;;22.82;64.32
59190;BME280;50749;51.636;4.948;2023-08-24T11:05:17;101402.56;;;22.82;64.05
59190;BME280;50749;51.636;4.948;2023-08-24T11:07:58;101415.34;;;22.83;64.31
59190;BME280;50749;51.636;4.948;2023-08-24T11:10:46;101414.50;;;22.82;63.74
59190;BME280;50749;51.636;4.948;2023-08-24T11:13:15;101417.31;;;22.82;64.52
59190;BME280;50749;51.636;4.948;2023-08-24T11:15:46;101407.00;;;22.87;64.76
59190;BME280;50749;51.636;4.948;2023-08-24T11:20:51;101408.66;;;22.91;64.37
59190;BME280;50749;51.636;4.948;2023-08-24T11:23:19;101387.91;;;22.89;64.71
59190;BME280;50749;51.636;4.948;2023-08-24T11:25:46;101386.34;;;22.91;64.92
59190;BME280;50749;51.636;4.948;2023-08-24T11:28:16;101364.00;;;22.88;63.88
59190;BME280;50749;51.636;4.948;2023-08-24T11:30:43;101345.31;;;22.88;64.17
59190;BME280;50749;51.636;4.948;2023-08-24T11:33:11;101321.78;;;22.86;64.48
59190;BME280;50749;51.636;4.948;2023-08-24T11:35:40;101310.25;;;22.87;64.15
59190;BME280;50749;51.636;4.948;2023-08-24T11:38:07;101309.44;;;22.87;64.76
59190;BME280;50749;51.636;4.948;2023-08-24T11:40:32;101299.09;;;22.87;64.36
59190;BME280;50749;51.636;4.948;2023-08-24T11:42:58;101293.53;;;22.87;64.50
59190;BME280;50749;51.636;4.948;2023-08-24T11:45:30;101271.22;;;22.87;64.54
59190;BME280;50749;51.636;4.948;2023-08-24T11:47:56;101257.28;;;22.87;64.85
59190;BME280;50749;51.636;4.948;2023-08-24T11:50:23;101265.25;;;22.89;63.83
59190;BME280;50749;51.636;4.948;2023-08-24T11:52:49;101262.47;;;22.89;63.48
59190;BME280;50749;51.636;4.948;2023-08-24T11:55:15;101260.47;;;22.89;63.83
59190;BME280;50749;51.636;4.948;2023-08-24T11:57:41;101253.72;;;22.90;63.41
59190;BME280;50749;51.636;4.948;2023-08-24T12:00:09;101255.31;;;22.91;63.64
59190;BME280;50749;51.636;4.948;2023-08-24T12:02:40;101240.22;;;22.92;63.54
59190;BME280;50749;51.636;4.948;2023-08-24T12:05:07;101239.03;;;22.93;63.37
59190;BME280;50749;51.636;4.948;2023-08-24T12:07:33;101254.56;;;22.94;63.19
59190;BME280;50749;51.636;4.948;2023-08-24T12:10:01;101264.53;;;22.95;63.35
59190;BME280;50749;51.636;4.948;2023-08-24T12:12:27;101273.69;;;22.96;63.45
59190;BME280;50749;51.636;4.948;2023-08-24T12:14:55;101280.88;;;22.97;63.04
59190;BME280;50749;51.636;4.948;2023-08-24T12:17:23;101294.81;;;22.97;63.03
59190;BME280;50749;51.636;4.948;2023-08-24T12:19:59;101294.44;;;22.98;62.92
59190;BME280;50749;51.636;4.948;2023-08-24T12:22:25;101307.19;;;22.99;63.49
59190;BME280;50749;51.636;4.948;2023-08-24T12:24:52;101307.19;;;22.99;63.03
59190;BME280;50749;51.636;4.948;2023-08-24T12:27:27;101314.38;;;23.00;63.16
59190;BME280;50749;51.636;4.948;2023-08-24T12:29:53;101304.00;;;23.01;63.13
59190;BME280;50749;51.636;4.948;2023-08-24T12:32:20;101296.88;;;23.04;63.63
59190;BME280;50749;51.636;4.948;2023-08-24T12:34:49;101289.31;;;23.04;63.34
59190;BME280;50749;51.636;4.948;2023-08-24T12:37:17;101292.91;;;23.05;63.10
59190;BME280;50749;51.636;4.948;2023-08-24T12:39:43;101272.59;;;23.04;63.48
59190;BME280;50749;51.636;4.948;2023-08-24T12:42:09;101277.78;;;23.06;63.26
59190;BME280;50749;51.636;4.948;2023-08-24T12:44:35;101285.34;;;23.05;63.01
59190;BME280;50749;51.636;4.948;2023-08-24T12:47:02;101280.22;;;23.07;63.35
59190;BME280;50749;51.636;4.948;2023-08-24T12:49:29;101283.00;;;23.07;63.50
59190;BME280;50749;51.636;4.948;2023-08-24T12:51:55;101289.00;;;23.09;63.48
59190;BME280;50749;51.636;4.948;2023-08-24T12:54:21;101278.63;;;23.10;63.29
59190;BME280;50749;51.636;4.948;2023-08-24T12:56:47;101289.00;;;23.09;63.20
59190;BME280;50749;51.636;4.948;2023-08-24T12:59:13;101298.16;;;23.10;63.20
59190;BME280;50749;51.636;4.948;2023-08-24T13:01:38;101292.19;;;23.11;62.97